sensor_id;sensor_type;location;lat;lon;timestamp;temperature;humidity
10468;DHT22;5281;48.878;9.394;2023-07-13T00:02:18;21.90;96.30
10468;DHT22;5281;48.878;9.394;2023-07-13T00:04:44;21.80;96.40
10468;DHT22;5281;48.878;9.394;2023-07-13T00:07:11;21.70;96.50
10468;DHT22;5281;48.878;9.394;2023-07-13T00:09:41;21.70;96.60
10468;DHT22;5281;48.878;9.394;2023-07-13T00:12:23;21.60;96.70
10468;DHT22;5281;48.878;9.394;2023-07-13T00:14:50;21.50;96.80
10468;DHT22;5281;48.878;9.394;2023-07-13T00:17:17;21.40;96.90
10468;DHT22;5281;48.878;9.394;2023-07-13T00:19:44;21.40;97.00
10468;DHT22;5281;48.878;9.394;2023-07-13T00:22:11;21.30;97.10
10468;DHT22;5281;48.878;9.394;2023-07-13T00:24:37;21.30;97.20
10468;DHT22;5281;48.878;9.394;2023-07-13T00:27:08;21.20;97.20
10468;DHT22;5281;48.878;9.394;2023-07-13T00:29:35;21.10;97.40
10468;DHT22;5281;48.878;9.394;2023-07-13T00:32:02;21.10;97.90
10468;DHT22;5281;48.878;9.394;2023-07-13T00:34:29;21.00;98.30
10468;DHT22;5281;48.878;9.394;2023-07-13T00:36:56;21.00;98.70
10468;DHT22;5281;48.878;9.394;2023-07-13T00:39:23;20.90;99.00
10468;DHT22;5281;48.878;9.394;2023-07-13T00:41:50;20.90;99.20
10468;DHT22;5281;48.878;9.394;2023-07-13T00:44:19;20.80;99.40
10468;DHT22;5281;48.878;9.394;2023-07-13T00:46:49;20.80;99.60
10468;DHT22;5281;48.878;9.394;2023-07-13T00:49:19;20.70;99.60
10468;DHT22;5281;48.878;9.394;2023-07-13T00:51:49;20.70;99.70
10468;DHT22;5281;48.878;9.394;2023-07-13T00:54:19;20.70;99.90
10468;DHT22;5281;48.878;9.394;2023-07-13T00:56:49;20.70;99.90
10468;DHT22;5281;48.878;9.394;2023-07-13T00:59:20;20.60;99.90
10468;DHT22;5281;48.878;9.394;2023-07-13T01:01:48;20.60;99.90
10468;DHT22;5281;48.878;9.394;2023-07-13T01:04:15;20.60;99.90
10468;DHT22;5281;48.878;9.394;2023-07-13T01:06:42;20.50;99.90
10468;DHT22;5281;48.878;9.394;2023-07-13T01:09:10;20.50;99.90
10468;DHT22;5281;48.878;9.394;2023-07-13T01:11:37;20.50;99.90
10468;DHT22;5281;48.878;9.394;2023-07-13T01:14:04;20.40;99.90
10468;DHT22;5281;48.878;9.394;2023-07-13T01:16:34;20.30;99.90
10468;DHT22;5281;48.878;9.394;2023-07-13T01:19:01;20.30;99.90
10468;DHT22;5281;48.878;9.394;2023-07-13T01:21:33;20.30;99.90
10468;DHT22;5281;48.878;9.394;2023-07-13T01:24:00;20.20;99.90
10468;DHT22;5281;48.878;9.394;2023-07-13T01:26:27;20.20;99.90
10468;DHT22;5281;48.878;9.394;2023-07-13T01:28:54;20.20;99.90
10468;DHT22;5281;48.878;9.394;2023-07-13T01:31:22;20.10;99.90
10468;DHT22;5281;48.878;9.394;2023-07-13T01:33:49;20.00;99.90
10468;DHT22;5281;48.878;9.394;2023-07-13T01:36:16;20.00;99.90
10468;DHT22;5281;48.878;9.394;2023-07-13T01:38:44;19.90;99.90
10468;DHT22;5281;48.878;9.394;2023-07-13T01:41:11;19.90;99.90
10468;DHT22;5281;48.878;9.394;2023-07-13T01:43:38;19.90;99.90
10468;DHT22;5281;48.878;9.394;2023-07-13T01:46:04;19.80;99.90
10468;DHT22;5281;48.878;9.394;2023-07-13T01:48:31;19.80;99.90
10468;DHT22;5281;48.878;9.394;2023-07-13T01:50:58;19.80;99.90
10468;DHT22;5281;48.878;9.394;2023-07-13T01:53:25;19.70;99.90
10468;DHT22;5281;48.878;9.394;2023-07-13T01:55:53;19.70;99.90
10468;DHT22;5281;48.878;9.394;2023-07-13T01:58:20;19.70;99.90
10468;DHT22;5281;48.878;9.394;2023-07-13T02:00:48;19.70;99.90
10468;DHT22;5281;48.878;9.394;2023-07-13T02:03:15;19.60;99.90
10468;DHT22;5281;48.878;9.394;2023-07-13T02:05:43;19.60;99.90
10468;DHT22;5281;48.878;9.394;2023-07-13T02:08:10;19.60;99.90
10468;DHT22;5281;48.878;9.394;2023-07-13T02:10:37;19.50;99.90
10468;DHT22;5281;48.878;9.394;2023-07-13T02:13:06;19.50;99.90
10468;DHT22;5281;48.878;9.394;2023-07-13T02:15:33;19.50;99.90
10468;DHT22;5281;48.878;9.394;2023-07-13T02:17:59;19.50;99.90
10468;DHT22;5281;48.878;9.394;2023-07-13T02:20:26;19.40;99.90
10468;DHT22;5281;48.878;9.394;2023-07-13T02:22:53;19.40;99.90
10468;DHT22;5281;48.878;9.394;2023-07-13T02:25:20;19.30;99.90
10468;DHT22;5281;48.878;9.394;2023-07-13T02:27:46;19.30;99.90
10468;DHT22;5281;48.878;9.394;2023-07-13T02:30:14;19.30;99.90
10468;DHT22;5281;48.878;9.394;2023-07-13T02:32:41;19.20;99.90
10468;DHT22;5281;48.878;9.394;2023-07-13T02:35:09;19.20;99.90
10468;DHT22;5281;48.878;9.394;2023-07-13T02:37:36;19.10;99.90
10468;DHT22;5281;48.878;9.394;2023-07-13T02:40:03;19.10;99.90
10468;DHT22;5281;48.878;9.394;2023-07-13T02:42:33;19.00;99.90
10468;DHT22;5281;48.878;9.394;2023-07-13T02:45:00;19.00;99.90
10468;DHT22;5281;48.878;9.394;2023-07-13T02:47:28;19.00;99.90
10468;DHT22;5281;48.878;9.394;2023-07-13T02:49:55;18.90;99.90
10468;DHT22;5281;48.878;9.394;2023-07-13T02:52:22;18.90;99.90
10468;DHT22;5281;48.878;9.394;2023-07-13T02:54:49;18.80;99.90
10468;DHT22;5281;48.878;9.394;2023-07-13T02:57:16;18.80;99.90
10468;DHT22;5281;48.878;9.394;2023-07-13T02:59:42;18.80;99.90
10468;DHT22;5281;48.878;9.394;2023-07-13T03:02:09;18.70;99.90
10468;DHT22;5281;48.878;9.394;2023-07-13T03:04:37;18.70;99.90
10468;DHT22;5281;48.878;9.394;2023-07-13T03:07:05;18.70;99.90
10468;DHT22;5281;48.878;9.394;2023-07-13T03:09:33;18.70;99.90
10468;DHT22;5281;48.878;9.394;2023-07-13T03:12:01;18.70;99.90
10468;DHT22;5281;48.878;9.394;2023-07-13T03:14:28;18.60;99.90
10468;DHT22;5281;48.878;9.394;2023-07-13T03:16:55;18.60;99.90
10468;DHT22;5281;48.878;9.394;2023-07-13T03:19:22;18.60;99.90
10468;DHT22;5281;48.878;9.394;2023-07-13T03:21:50;18.60;99.90
10468;DHT22;5281;48.878;9.394;2023-07-13T03:24:17;18.50;99.90
10468;DHT22;5281;48.878;9.394;2023-07-13T03:26:43;18.50;99.90
10468;DHT22;5281;48.878;9.394;2023-07-13T03:29:10;18.50;99.90
10468;DHT22;5281;48.878;9.394;2023-07-13T03:31:37;18.60;99.90
10468;DHT22;5281;48.878;9.394;2023-07-13T03:34:04;18.70;99.90
10468;DHT22;5281;48.878;9.394;2023-07-13T03:36:32;18.80;99.90
10468;DHT22;5281;48.878;9.394;2023-07-13T03:39:02;18.90;99.90
10468;DHT22;5281;48.878;9.394;2023-07-13T03:41:29;19.00;99.90
10468;DHT22;5281;48.878;9.394;2023-07-13T03:43:57;19.10;99.90
10468;DHT22;5281;48.878;9.394;2023-07-13T03:46:23;19.20;99.90
10468;DHT22;5281;48.878;9.394;2023-07-13T03:48:50;19.30;99.90
10468;DHT22;5281;48.878;9.394;2023-07-13T03:51:18;19.40;99.90
10468;DHT22;5281;48.878;9.394;2023-07-13T03:53:46;19.50;99.90
10468;DHT22;5281;48.878;9.394;2023-07-13T03:56:15;19.60;99.90
10468;DHT22;5281;48.878;9.394;2023-07-13T03:58:44;19.60;99.90
10468;DHT22;5281;48.878;9.394;2023-07-13T04:01:12;19.70;99.90
10468;DHT22;5281;48.878;9.394;2023-07-13T04:03:40;19.80;99.90
10468;DHT22;5281;48.878;9.394;2023-07-13T04:06:12;19.80;99.90
10468;DHT22;5281;48.878;9.394;2023-07-13T04:08:40;19.80;99.90
10468;DHT22;5281;48.878;9.394;2023-07-13T04:11:07;19.90;99.90
10468;DHT22;5281;48.878;9.394;2023-07-13T04:13:35;19.90;99.90
10468;DHT22;5281;48.878;9.394;2023-07-13T04:16:02;20.00;99.90
10468;DHT22;5281;48.878;9.394;2023-07-13T04:18:29;20.00;99.90
10468;DHT22;5281;48.878;9.394;2023-07-13T04:20:56;20.00;99.90
10468;DHT22;5281;48.878;9.394;2023-07-13T04:23:23;20.00;99.90
10468;DHT22;5281;48.878;9.394;2023-07-13T04:25:52;19.90;99.90
10468;DHT22;5281;48.878;9.394;2023-07-13T04:28:19;19.90;99.90
10468;DHT22;5281;48.878;9.394;2023-07-13T04:30:47;19.70;99.90
10468;DHT22;5281;48.878;9.394;2023-07-13T04:33:14;19.60;99.90
10468;DHT22;5281;48.878;9.394;2023-07-13T04:35:42;19.60;99.90
10468;DHT22;5281;48.878;9.394;2023-07-13T04:38:09;19.50;99.90
10468;DHT22;5281;48.878;9.394;2023-07-13T04:40:37;19.60;99.90
10468;DHT22;5281;48.878;9.394;2023-07-13T04:43:04;19.70;99.90
10468;DHT22;5281;48.878;9.394;2023-07-13T04:45:30;19.80;99.90
10468;DHT22;5281;48.878;9.394;2023-07-13T04:47:58;19.90;99.90
10468;DHT22;5281;48.878;9.394;2023-07-13T04:50:25;20.00;99.90
10468;DHT22;5281;48.878;9.394;2023-07-13T04:52:52;20.10;99.90
10468;DHT22;5281;48.878;9.394;2023-07-13T04:55:19;20.10;99.90
10468;DHT22;5281;48.878;9.394;2023-07-13T04:57:46;20.10;99.90
10468;DHT22;5281;48.878;9.394;2023-07-13T05:00:14;20.10;99.90
10468;DHT22;5281;48.878;9.394;2023-07-13T05:02:44;20.00;99.90
10468;DHT22;5281;48.878;9.394;2023-07-13T05:05:12;19.90;99.90
10468;DHT22;5281;48.878;9.394;2023-07-13T05:07:39;19.80;99.90
10468;DHT22;5281;48.878;9.394;2023-07-13T05:10:07;19.80;99.90
10468;DHT22;5281;48.878;9.394;2023-07-13T05:12:34;19.70;99.90
10468;DHT22;5281;48.878;9.394;2023-07-13T05:15:01;19.80;99.90
10468;DHT22;5281;48.878;9.394;2023-07-13T05:17:28;19.90;99.90
10468;DHT22;5281;48.878;9.394;2023-07-13T05:19:55;20.10;99.90
10468;DHT22;5281;48.878;9.394;2023-07-13T05:22:23;20.40;99.90
10468;DHT22;5281;48.878;9.394;2023-07-13T05:24:50;20.90;99.90
10468;DHT22;5281;48.878;9.394;2023-07-13T05:27:16;22.00;99.90
10468;DHT22;5281;48.878;9.394;2023-07-13T05:29:43;23.00;99.90
10468;DHT22;5281;48.878;9.394;2023-07-13T05:32:10;23.70;99.90
10468;DHT22;5281;48.878;9.394;2023-07-13T05:34:37;24.10;99.90
10468;DHT22;5281;48.878;9.394;2023-07-13T05:37:04;24.60;99.90
10468;DHT22;5281;48.878;9.394;2023-07-13T05:39:32;24.70;99.90
10468;DHT22;5281;48.878;9.394;2023-07-13T05:41:59;24.70;99.30
10468;DHT22;5281;48.878;9.394;2023-07-13T05:44:26;24.60;97.70
10468;DHT22;5281;48.878;9.394;2023-07-13T05:46:52;24.50;97.10
10468;DHT22;5281;48.878;9.394;2023-07-13T05:49:20;24.60;96.80
10468;DHT22;5281;48.878;9.394;2023-07-13T05:51:47;24.60;96.40
10468;DHT22;5281;48.878;9.394;2023-07-13T05:54:13;24.90;96.00
10468;DHT22;5281;48.878;9.394;2023-07-13T05:56:41;25.00;95.60
10468;DHT22;5281;48.878;9.394;2023-07-13T05:59:08;25.20;95.00
10468;DHT22;5281;48.878;9.394;2023-07-13T06:01:35;25.30;94.10
10468;DHT22;5281;48.878;9.394;2023-07-13T06:04:02;25.20;94.10
10468;DHT22;5281;48.878;9.394;2023-07-13T06:06:29;25.00;93.80
10468;DHT22;5281;48.878;9.394;2023-07-13T06:08:55;24.80;93.90
10468;DHT22;5281;48.878;9.394;2023-07-13T06:11:24;24.80;94.00
10468;DHT22;5281;48.878;9.394;2023-07-13T06:13:53;24.70;93.80
10468;DHT22;5281;48.878;9.394;2023-07-13T06:16:19;24.90;93.70
10468;DHT22;5281;48.878;9.394;2023-07-13T06:18:46;25.00;93.10
10468;DHT22;5281;48.878;9.394;2023-07-13T06:21:15;25.50;92.90
10468;DHT22;5281;48.878;9.394;2023-07-13T06:23:42;26.20;92.00
10468;DHT22;5281;48.878;9.394;2023-07-13T06:26:10;27.10;90.40
10468;DHT22;5281;48.878;9.394;2023-07-13T06:28:37;28.10;85.00
10468;DHT22;5281;48.878;9.394;2023-07-13T06:31:07;29.30;81.00
10468;DHT22;5281;48.878;9.394;2023-07-13T06:33:34;30.50;76.20
10468;DHT22;5281;48.878;9.394;2023-07-13T06:36:02;32.30;68.80
10468;DHT22;5281;48.878;9.394;2023-07-13T06:38:29;33.40;64.10
10468;DHT22;5281;48.878;9.394;2023-07-13T06:40:56;33.10;62.80
10468;DHT22;5281;48.878;9.394;2023-07-13T06:43:22;32.70;63.10
10468;DHT22;5281;48.878;9.394;2023-07-13T06:45:50;32.40;62.80
10468;DHT22;5281;48.878;9.394;2023-07-13T06:48:19;32.10;62.80
10468;DHT22;5281;48.878;9.394;2023-07-13T06:50:47;31.70;63.20
10468;DHT22;5281;48.878;9.394;2023-07-13T06:53:15;31.90;63.00
10468;DHT22;5281;48.878;9.394;2023-07-13T06:55:43;32.80;61.70
10468;DHT22;5281;48.878;9.394;2023-07-13T06:58:10;34.40;58.30
10468;DHT22;5281;48.878;9.394;2023-07-13T07:00:37;36.30;54.70
10468;DHT22;5281;48.878;9.394;2023-07-13T07:03:05;37.80;52.20
10468;DHT22;5281;48.878;9.394;2023-07-13T07:05:33;39.10;48.80
10468;DHT22;5281;48.878;9.394;2023-07-13T07:08:00;40.10;46.60
10468;DHT22;5281;48.878;9.394;2023-07-13T07:10:30;40.30;45.00
10468;DHT22;5281;48.878;9.394;2023-07-13T07:12:57;40.40;44.30
10468;DHT22;5281;48.878;9.394;2023-07-13T07:15:24;41.10;42.60
10468;DHT22;5281;48.878;9.394;2023-07-13T07:17:51;41.50;40.90
10468;DHT22;5281;48.878;9.394;2023-07-13T07:20:18;41.50;40.80
10468;DHT22;5281;48.878;9.394;2023-07-13T07:22:47;41.20;41.60
10468;DHT22;5281;48.878;9.394;2023-07-13T07:25:14;41.60;41.20
10468;DHT22;5281;48.878;9.394;2023-07-13T07:27:40;42.30;40.40
10468;DHT22;5281;48.878;9.394;2023-07-13T07:30:08;43.00;39.50
10468;DHT22;5281;48.878;9.394;2023-07-13T07:32:35;43.40;38.60
10468;DHT22;5281;48.878;9.394;2023-07-13T07:35:02;43.70;37.80
10468;DHT22;5281;48.878;9.394;2023-07-13T07:37:28;44.10;36.80
10468;DHT22;5281;48.878;9.394;2023-07-13T07:39:56;44.00;35.90
10468;DHT22;5281;48.878;9.394;2023-07-13T07:42:24;42.90;37.10
10468;DHT22;5281;48.878;9.394;2023-07-13T07:44:51;42.60;37.40
10468;DHT22;5281;48.878;9.394;2023-07-13T07:47:18;41.90;37.50
10468;DHT22;5281;48.878;9.394;2023-07-13T07:49:44;40.50;38.50
10468;DHT22;5281;48.878;9.394;2023-07-13T07:52:11;40.10;38.80
10468;DHT22;5281;48.878;9.394;2023-07-13T07:54:38;40.00;38.00
10468;DHT22;5281;48.878;9.394;2023-07-13T07:57:06;40.50;38.70
10468;DHT22;5281;48.878;9.394;2023-07-13T07:59:33;41.10;37.70
10468;DHT22;5281;48.878;9.394;2023-07-13T08:02:00;41.50;37.40
10468;DHT22;5281;48.878;9.394;2023-07-13T08:04:28;42.10;36.50
10468;DHT22;5281;48.878;9.394;2023-07-13T08:06:55;42.90;35.60
10468;DHT22;5281;48.878;9.394;2023-07-13T08:09:22;42.90;34.80
10468;DHT22;5281;48.878;9.394;2023-07-13T08:11:49;42.80;35.10
10468;DHT22;5281;48.878;9.394;2023-07-13T08:14:18;42.60;34.10
10468;DHT22;5281;48.878;9.394;2023-07-13T08:16:45;41.90;34.90
10468;DHT22;5281;48.878;9.394;2023-07-13T08:19:12;41.80;35.90
10468;DHT22;5281;48.878;9.394;2023-07-13T08:21:39;42.20;34.50
10468;DHT22;5281;48.878;9.394;2023-07-13T08:24:08;40.90;35.60
10468;DHT22;5281;48.878;9.394;2023-07-13T08:26:35;39.40;36.90
10468;DHT22;5281;48.878;9.394;2023-07-13T08:29:02;39.10;36.70
10468;DHT22;5281;48.878;9.394;2023-07-13T08:31:30;38.30;37.90
10468;DHT22;5281;48.878;9.394;2023-07-13T08:33:57;38.60;38.00
10468;DHT22;5281;48.878;9.394;2023-07-13T08:36:25;39.50;37.10
10468;DHT22;5281;48.878;9.394;2023-07-13T08:38:52;40.70;35.70
10468;DHT22;5281;48.878;9.394;2023-07-13T08:41:18;41.40;35.00
10468;DHT22;5281;48.878;9.394;2023-07-13T08:43:47;42.30;33.80
10468;DHT22;5281;48.878;9.394;2023-07-13T08:46:19;42.20;33.60
10468;DHT22;5281;48.878;9.394;2023-07-13T08:48:51;41.80;33.60
10468;DHT22;5281;48.878;9.394;2023-07-13T08:51:29;40.50;34.40
10468;DHT22;5281;48.878;9.394;2023-07-13T08:54:00;39.20;36.20
10468;DHT22;5281;48.878;9.394;2023-07-13T08:56:30;37.90;37.40
10468;DHT22;5281;48.878;9.394;2023-07-13T08:59:00;36.60;38.30
10468;DHT22;5281;48.878;9.394;2023-07-13T09:01:38;34.60;40.60
10468;DHT22;5281;48.878;9.394;2023-07-13T09:04:14;33.20;42.40
10468;DHT22;5281;48.878;9.394;2023-07-13T09:06:55;31.60;44.70
10468;DHT22;5281;48.878;9.394;2023-07-13T09:09:34;30.30;46.40
10468;DHT22;5281;48.878;9.394;2023-07-13T09:12:11;29.30;48.20
10468;DHT22;5281;48.878;9.394;2023-07-13T09:14:43;28.50;50.10
10468;DHT22;5281;48.878;9.394;2023-07-13T09:17:16;28.00;51.00
10468;DHT22;5281;48.878;9.394;2023-07-13T09:19:47;27.80;51.20
10468;DHT22;5281;48.878;9.394;2023-07-13T09:22:19;27.80;51.50
10468;DHT22;5281;48.878;9.394;2023-07-13T09:24:52;27.70;52.10
10468;DHT22;5281;48.878;9.394;2023-07-13T09:27:22;27.50;51.90
10468;DHT22;5281;48.878;9.394;2023-07-13T09:29:55;27.30;53.10
10468;DHT22;5281;48.878;9.394;2023-07-13T09:32:24;27.00;53.20
10468;DHT22;5281;48.878;9.394;2023-07-13T09:34:55;27.00;53.20
10468;DHT22;5281;48.878;9.394;2023-07-13T09:37:27;27.00;53.30
10468;DHT22;5281;48.878;9.394;2023-07-13T09:39:56;26.90;54.60
10468;DHT22;5281;48.878;9.394;2023-07-13T09:42:23;27.00;54.20
10468;DHT22;5281;48.878;9.394;2023-07-13T09:44:53;26.90;54.80
10468;DHT22;5281;48.878;9.394;2023-07-13T09:47:23;27.00;54.80
10468;DHT22;5281;48.878;9.394;2023-07-13T09:49:56;27.10;54.40
10468;DHT22;5281;48.878;9.394;2023-07-13T09:52:24;27.10;54.00
10468;DHT22;5281;48.878;9.394;2023-07-13T09:54:53;26.90;55.10
10468;DHT22;5281;48.878;9.394;2023-07-13T09:57:26;26.80;54.80
10468;DHT22;5281;48.878;9.394;2023-07-13T09:59:54;26.80;55.10
10468;DHT22;5281;48.878;9.394;2023-07-13T10:02:27;26.90;54.80
10468;DHT22;5281;48.878;9.394;2023-07-13T10:05:01;27.10;55.00
10468;DHT22;5281;48.878;9.394;2023-07-13T10:07:29;27.10;53.70
10468;DHT22;5281;48.878;9.394;2023-07-13T10:09:57;27.10;53.70
10468;DHT22;5281;48.878;9.394;2023-07-13T10:12:27;27.30;53.40
10468;DHT22;5281;48.878;9.394;2023-07-13T10:14:55;27.60;52.80
10468;DHT22;5281;48.878;9.394;2023-07-13T10:17:27;28.00;51.60
10468;DHT22;5281;48.878;9.394;2023-07-13T10:20:01;28.20;51.90
10468;DHT22;5281;48.878;9.394;2023-07-13T10:22:36;28.50;51.60
10468;DHT22;5281;48.878;9.394;2023-07-13T10:25:15;28.70;50.20
10468;DHT22;5281;48.878;9.394;2023-07-13T10:27:44;28.70;50.00
10468;DHT22;5281;48.878;9.394;2023-07-13T10:30:14;28.40;50.90
10468;DHT22;5281;48.878;9.394;2023-07-13T10:32:42;28.50;50.70
10468;DHT22;5281;48.878;9.394;2023-07-13T10:35:14;28.70;51.10
10468;DHT22;5281;48.878;9.394;2023-07-13T10:37:47;29.00;50.70
10468;DHT22;5281;48.878;9.394;2023-07-13T10:40:19;29.10;49.70
10468;DHT22;5281;48.878;9.394;2023-07-13T10:42:48;29.20;50.10
10468;DHT22;5281;48.878;9.394;2023-07-13T10:45:19;29.30;49.40
10468;DHT22;5281;48.878;9.394;2023-07-13T10:47:47;29.60;50.20
10468;DHT22;5281;48.878;9.394;2023-07-13T10:50:19;30.00;48.70
10468;DHT22;5281;48.878;9.394;2023-07-13T10:52:48;30.40;48.20
10468;DHT22;5281;48.878;9.394;2023-07-13T10:55:32;30.70;48.00
10468;DHT22;5281;48.878;9.394;2023-07-13T10:58:01;30.90;47.10
10468;DHT22;5281;48.878;9.394;2023-07-13T11:00:31;31.10;47.40
10468;DHT22;5281;48.878;9.394;2023-07-13T11:03:00;31.30;47.10
10468;DHT22;5281;48.878;9.394;2023-07-13T11:05:32;31.40;47.40
10468;DHT22;5281;48.878;9.394;2023-07-13T11:08:12;31.40;47.00
10468;DHT22;5281;48.878;9.394;2023-07-13T11:10:48;31.20;47.00
10468;DHT22;5281;48.878;9.394;2023-07-13T11:13:39;31.00;47.50
10468;DHT22;5281;48.878;9.394;2023-07-13T11:16:46;31.00;47.10
10468;DHT22;5281;48.878;9.394;2023-07-13T11:19:40;30.80;47.70
10468;DHT22;5281;48.878;9.394;2023-07-13T11:22:16;30.70;47.50
10468;DHT22;5281;48.878;9.394;2023-07-13T11:25:21;30.20;48.40
10468;DHT22;5281;48.878;9.394;2023-07-13T11:28:03;29.80;48.80
10468;DHT22;5281;48.878;9.394;2023-07-13T11:30:36;29.50;49.50
10468;DHT22;5281;48.878;9.394;2023-07-13T11:33:17;29.60;49.50
10468;DHT22;5281;48.878;9.394;2023-07-13T11:35:52;29.60;48.90
10468;DHT22;5281;48.878;9.394;2023-07-13T11:38:24;29.70;49.60
10468;DHT22;5281;48.878;9.394;2023-07-13T11:40:55;29.70;48.80
10468;DHT22;5281;48.878;9.394;2023-07-13T11:43:22;29.50;49.50
10468;DHT22;5281;48.878;9.394;2023-07-13T11:45:50;29.20;49.80
10468;DHT22;5281;48.878;9.394;2023-07-13T11:48:27;29.00;50.10
10468;DHT22;5281;48.878;9.394;2023-07-13T11:51:00;28.90;49.90
10468;DHT22;5281;48.878;9.394;2023-07-13T11:53:35;29.20;50.30
10468;DHT22;5281;48.878;9.394;2023-07-13T11:56:03;29.50;49.50
10468;DHT22;5281;48.878;9.394;2023-07-13T11:58:30;29.70;49.90
10468;DHT22;5281;48.878;9.394;2023-07-13T12:00:59;29.90;49.80
10468;DHT22;5281;48.878;9.394;2023-07-13T12:03:30;30.10;47.60
10468;DHT22;5281;48.878;9.394;2023-07-13T12:06:00;30.10;47.10
10468;DHT22;5281;48.878;9.394;2023-07-13T12:08:29;30.30;48.30
10468;DHT22;5281;48.878;9.394;2023-07-13T12:11:01;30.60;48.00
10468;DHT22;5281;48.878;9.394;2023-07-13T12:13:35;30.90;46.70
10468;DHT22;5281;48.878;9.394;2023-07-13T12:16:07;31.30;46.40
10468;DHT22;5281;48.878;9.394;2023-07-13T12:18:37;31.60;45.50
10468;DHT22;5281;48.878;9.394;2023-07-13T12:21:04;31.70;45.30
10468;DHT22;5281;48.878;9.394;2023-07-13T12:23:34;31.80;45.60
10468;DHT22;5281;48.878;9.394;2023-07-13T12:26:04;31.70;46.00
10468;DHT22;5281;48.878;9.394;2023-07-13T12:28:33;31.80;45.90
10468;DHT22;5281;48.878;9.394;2023-07-13T12:31:01;31.80;45.60
10468;DHT22;5281;48.878;9.394;2023-07-13T12:33:30;31.50;46.70
10468;DHT22;5281;48.878;9.394;2023-07-13T12:36:00;31.60;46.80
10468;DHT22;5281;48.878;9.394;2023-07-13T12:38:28;31.90;45.80
10468;DHT22;5281;48.878;9.394;2023-07-13T12:40:56;32.10;46.10
10468;DHT22;5281;48.878;9.394;2023-07-13T12:43:24;32.30;45.80
10468;DHT22;5281;48.878;9.394;2023-07-13T12:45:57;32.30;45.10
10468;DHT22;5281;48.878;9.394;2023-07-13T12:48:24;32.20;45.40
10468;DHT22;5281;48.878;9.394;2023-07-13T12:50:53;31.70;44.60
10468;DHT22;5281;48.878;9.394;2023-07-13T12:53:22;31.30;46.10
10468;DHT22;5281;48.878;9.394;2023-07-13T12:55:52;31.10;46.40
10468;DHT22;5281;48.878;9.394;2023-07-13T12:58:26;31.00;45.80
10468;DHT22;5281;48.878;9.394;2023-07-13T13:00:55;30.80;46.60
10468;DHT22;5281;48.878;9.394;2023-07-13T13:03:26;30.80;46.40
10468;DHT22;5281;48.878;9.394;2023-07-13T13:05:59;31.00;46.90
10468;DHT22;5281;48.878;9.394;2023-07-13T13:08:30;31.20;45.80
10468;DHT22;5281;48.878;9.394;2023-07-13T13:10:57;31.30;46.20
10468;DHT22;5281;48.878;9.394;2023-07-13T13:13:25;31.40;45.40
10468;DHT22;5281;48.878;9.394;2023-07-13T13:15:52;31.50;45.40
10468;DHT22;5281;48.878;9.394;2023-07-13T13:18:21;31.50;45.10
10468;DHT22;5281;48.878;9.394;2023-07-13T13:20:48;31.10;44.90
10468;DHT22;5281;48.878;9.394;2023-07-13T13:23:17;30.80;45.50
10468;DHT22;5281;48.878;9.394;2023-07-13T13:25:45;30.80;45.60
10468;DHT22;5281;48.878;9.394;2023-07-13T13:28:14;30.70;45.10
10468;DHT22;5281;48.878;9.394;2023-07-13T13:30:44;30.50;44.80
10468;DHT22;5281;48.878;9.394;2023-07-13T13:33:12;30.20;44.90
10468;DHT22;5281;48.878;9.394;2023-07-13T13:35:40;29.80;46.30
10468;DHT22;5281;48.878;9.394;2023-07-13T13:38:12;29.70;47.10
10468;DHT22;5281;48.878;9.394;2023-07-13T13:40:41;29.90;46.30
10468;DHT22;5281;48.878;9.394;2023-07-13T13:43:15;30.00;46.70
10468;DHT22;5281;48.878;9.394;2023-07-13T13:45:45;30.20;45.80
10468;DHT22;5281;48.878;9.394;2023-07-13T13:48:18;30.40;45.10
10468;DHT22;5281;48.878;9.394;2023-07-13T13:50:45;30.50;45.60
10468;DHT22;5281;48.878;9.394;2023-07-13T13:53:13;30.70;44.90
10468;DHT22;5281;48.878;9.394;2023-07-13T13:55:40;31.00;45.10
10468;DHT22;5281;48.878;9.394;2023-07-13T13:58:08;31.40;44.10
10468;DHT22;5281;48.878;9.394;2023-07-13T14:00:35;31.30;43.90
10468;DHT22;5281;48.878;9.394;2023-07-13T14:03:04;31.10;44.40
10468;DHT22;5281;48.878;9.394;2023-07-13T14:05:32;30.70;44.70
10468;DHT22;5281;48.878;9.394;2023-07-13T14:07:59;30.50;44.80
10468;DHT22;5281;48.878;9.394;2023-07-13T14:10:26;30.50;45.10
10468;DHT22;5281;48.878;9.394;2023-07-13T14:12:54;30.60;45.50
10468;DHT22;5281;48.878;9.394;2023-07-13T14:15:23;30.80;45.40
10468;DHT22;5281;48.878;9.394;2023-07-13T14:17:50;30.80;45.10
10468;DHT22;5281;48.878;9.394;2023-07-13T14:20:19;30.60;44.70
10468;DHT22;5281;48.878;9.394;2023-07-13T14:22:46;30.30;45.20
10468;DHT22;5281;48.878;9.394;2023-07-13T14:25:14;30.10;46.10
10468;DHT22;5281;48.878;9.394;2023-07-13T14:27:42;30.10;45.40
10468;DHT22;5281;48.878;9.394;2023-07-13T14:30:13;29.80;45.80
10468;DHT22;5281;48.878;9.394;2023-07-13T14:32:40;29.40;46.00
10468;DHT22;5281;48.878;9.394;2023-07-13T14:35:08;29.30;46.30
10468;DHT22;5281;48.878;9.394;2023-07-13T14:37:38;29.20;46.90
10468;DHT22;5281;48.878;9.394;2023-07-13T14:40:13;29.10;47.00
10468;DHT22;5281;48.878;9.394;2023-07-13T14:42:39;29.00;47.20
10468;DHT22;5281;48.878;9.394;2023-07-13T14:45:12;29.10;47.10
10468;DHT22;5281;48.878;9.394;2023-07-13T14:47:39;29.30;46.70
10468;DHT22;5281;48.878;9.394;2023-07-13T14:50:13;29.60;46.60
10468;DHT22;5281;48.878;9.394;2023-07-13T14:52:43;29.70;45.50
10468;DHT22;5281;48.878;9.394;2023-07-13T14:55:11;29.70;44.90
10468;DHT22;5281;48.878;9.394;2023-07-13T14:57:38;29.60;45.80
10468;DHT22;5281;48.878;9.394;2023-07-13T15:00:12;29.60;46.00
10468;DHT22;5281;48.878;9.394;2023-07-13T15:02:39;29.60;45.40
10468;DHT22;5281;48.878;9.394;2023-07-13T15:05:13;29.60;45.50
10468;DHT22;5281;48.878;9.394;2023-07-13T15:07:41;29.60;45.30
10468;DHT22;5281;48.878;9.394;2023-07-13T15:10:15;29.50;45.80
10468;DHT22;5281;48.878;9.394;2023-07-13T15:12:42;29.50;46.40
10468;DHT22;5281;48.878;9.394;2023-07-13T15:15:09;29.50;46.30
10468;DHT22;5281;48.878;9.394;2023-07-13T15:17:38;29.70;46.50
10468;DHT22;5281;48.878;9.394;2023-07-13T15:20:15;29.80;46.10
10468;DHT22;5281;48.878;9.394;2023-07-13T15:22:45;30.00;46.50
10468;DHT22;5281;48.878;9.394;2023-07-13T15:25:16;30.00;45.90
10468;DHT22;5281;48.878;9.394;2023-07-13T15:27:43;30.00;45.70
10468;DHT22;5281;48.878;9.394;2023-07-13T15:30:10;30.00;46.00
10468;DHT22;5281;48.878;9.394;2023-07-13T15:32:37;29.90;46.80
10468;DHT22;5281;48.878;9.394;2023-07-13T15:35:05;29.80;46.50
10468;DHT22;5281;48.878;9.394;2023-07-13T15:37:32;29.80;46.30
10468;DHT22;5281;48.878;9.394;2023-07-13T15:40:00;29.70;46.60
10468;DHT22;5281;48.878;9.394;2023-07-13T15:42:27;29.70;46.90
10468;DHT22;5281;48.878;9.394;2023-07-13T15:44:53;29.50;47.70
10468;DHT22;5281;48.878;9.394;2023-07-13T15:47:20;29.40;47.30
10468;DHT22;5281;48.878;9.394;2023-07-13T15:49:47;29.20;48.00
10468;DHT22;5281;48.878;9.394;2023-07-13T15:52:17;29.10;47.70
10468;DHT22;5281;48.878;9.394;2023-07-13T15:54:45;29.10;47.90
10468;DHT22;5281;48.878;9.394;2023-07-13T15:57:14;29.20;48.00